sensor_id;sensor_type;location;lat;lon;timestamp;P1;durP1;ratioP1;P2;durP2;ratioP2
11287;SDS011;5700;50.996;7.044;2022-11-20T00:00:45;14.10;;;7.60;;
11287;SDS011;5700;50.996;7.044;2022-11-20T00:03:47;12.68;;;6.85;;
11287;SDS011;5700;50.996;7.044;2022-11-20T00:06:48;13.80;;;5.82;;
11287;SDS011;5700;50.996;7.044;2022-11-20T00:09:51;14.68;;;6.78;;
11287;SDS011;5700;50.996;7.044;2022-11-20T00:12:52;12.38;;;5.80;;
11287;SDS011;5700;50.996;7.044;2022-11-20T00:15:56;12.77;;;5.63;;
11287;SDS011;5700;50.996;7.044;2022-11-20T00:18:58;11.10;;;5.68;;
11287;SDS011;5700;50.996;7.044;2022-11-20T00:21:59;13.32;;;5.07;;
11287;SDS011;5700;50.996;7.044;2022-11-20T00:25:02;15.05;;;6.28;;
11287;SDS011;5700;50.996;7.044;2022-11-20T00:28:04;13.57;;;6.82;;
11287;SDS011;5700;50.996;7.044;2022-11-20T00:31:06;13.10;;;6.05;;
11287;SDS011;5700;50.996;7.044;2022-11-20T00:34:08;12.85;;;5.95;;
11287;SDS011;5700;50.996;7.044;2022-11-20T00:37:10;13.00;;;6.18;;
11287;SDS011;5700;50.996;7.044;2022-11-20T00:40:13;12.05;;;5.80;;
11287;SDS011;5700;50.996;7.044;2022-11-20T00:43:14;12.18;;;6.25;;
11287;SDS011;5700;50.996;7.044;2022-11-20T00:46:16;12.93;;;5.82;;
11287;SDS011;5700;50.996;7.044;2022-11-20T00:49:18;12.52;;;6.35;;
11287;SDS011;5700;50.996;7.044;2022-11-20T00:52:20;13.85;;;6.40;;
11287;SDS011;5700;50.996;7.044;2022-11-20T00:55:22;13.60;;;6.70;;
11287;SDS011;5700;50.996;7.044;2022-11-20T00:58:28;13.60;;;6.05;;
11287;SDS011;5700;50.996;7.044;2022-11-20T01:01:30;14.95;;;6.45;;
11287;SDS011;5700;50.996;7.044;2022-11-20T01:04:32;12.57;;;6.32;;
11287;SDS011;5700;50.996;7.044;2022-11-20T01:07:33;11.95;;;5.28;;
11287;SDS011;5700;50.996;7.044;2022-11-20T01:10:36;11.35;;;5.72;;
11287;SDS011;5700;50.996;7.044;2022-11-20T01:13:38;11.95;;;5.90;;
11287;SDS011;5700;50.996;7.044;2022-11-20T01:16:41;13.20;;;6.22;;
11287;SDS011;5700;50.996;7.044;2022-11-20T01:19:43;11.50;;;5.80;;
11287;SDS011;5700;50.996;7.044;2022-11-20T01:22:45;14.30;;;6.05;;
11287;SDS011;5700;50.996;7.044;2022-11-20T01:25:47;11.27;;;5.32;;
11287;SDS011;5700;50.996;7.044;2022-11-20T01:28:49;10.52;;;5.97;;
11287;SDS011;5700;50.996;7.044;2022-11-20T01:31:51;12.63;;;5.53;;
11287;SDS011;5700;50.996;7.044;2022-11-20T01:34:53;13.13;;;6.20;;
11287;SDS011;5700;50.996;7.044;2022-11-20T01:37:54;13.35;;;6.38;;
11287;SDS011;5700;50.996;7.044;2022-11-20T01:40:57;12.65;;;6.15;;
11287;SDS011;5700;50.996;7.044;2022-11-20T01:43:58;12.70;;;6.15;;
11287;SDS011;5700;50.996;7.044;2022-11-20T01:46:59;13.50;;;6.50;;
11287;SDS011;5700;50.996;7.044;2022-11-20T01:50:04;10.75;;;5.20;;
11287;SDS011;5700;50.996;7.044;2022-11-20T01:53:07;12.82;;;5.40;;
11287;SDS011;5700;50.996;7.044;2022-11-20T01:56:12;14.35;;;6.15;;
11287;SDS011;5700;50.996;7.044;2022-11-20T01:59:15;13.20;;;5.75;;
11287;SDS011;5700;50.996;7.044;2022-11-20T02:02:19;13.60;;;6.30;;
11287;SDS011;5700;50.996;7.044;2022-11-20T02:05:22;11.93;;;6.53;;
11287;SDS011;5700;50.996;7.044;2022-11-20T02:08:26;12.85;;;5.60;;
11287;SDS011;5700;50.996;7.044;2022-11-20T02:11:30;12.45;;;6.15;;
11287;SDS011;5700;50.996;7.044;2022-11-20T02:14:32;13.65;;;6.20;;
11287;SDS011;5700;50.996;7.044;2022-11-20T02:17:32;11.52;;;5.68;;
11287;SDS011;5700;50.996;7.044;2022-11-20T02:20:34;15.57;;;6.57;;
11287;SDS011;5700;50.996;7.044;2022-11-20T02:23:36;15.32;;;5.28;;
11287;SDS011;5700;50.996;7.044;2022-11-20T02:26:42;11.90;;;5.97;;
11287;SDS011;5700;50.996;7.044;2022-11-20T02:29:48;12.98;;;6.00;;
11287;SDS011;5700;50.996;7.044;2022-11-20T02:32:52;13.20;;;5.95;;
11287;SDS011;5700;50.996;7.044;2022-11-20T02:35:53;10.32;;;5.32;;
11287;SDS011;5700;50.996;7.044;2022-11-20T02:38:55;13.85;;;6.45;;
11287;SDS011;5700;50.996;7.044;2022-11-20T02:41:57;12.98;;;6.20;;
11287;SDS011;5700;50.996;7.044;2022-11-20T02:45:02;13.05;;;6.05;;
11287;SDS011;5700;50.996;7.044;2022-11-20T02:48:03;10.48;;;5.60;;
11287;SDS011;5700;50.996;7.044;2022-11-20T02:51:06;9.75;;;4.93;;
11287;SDS011;5700;50.996;7.044;2022-11-20T02:54:07;11.68;;;5.60;;
11287;SDS011;5700;50.996;7.044;2022-11-20T02:57:10;11.02;;;5.63;;
11287;SDS011;5700;50.996;7.044;2022-11-20T03:00:12;15.05;;;6.43;;
11287;SDS011;5700;50.996;7.044;2022-11-20T03:03:13;15.55;;;6.20;;
11287;SDS011;5700;50.996;7.044;2022-11-20T03:06:15;13.60;;;6.75;;
11287;SDS011;5700;50.996;7.044;2022-11-20T03:09:16;12.93;;;5.80;;
11287;SDS011;5700;50.996;7.044;2022-11-20T03:12:19;13.70;;;6.38;;
11287;SDS011;5700;50.996;7.044;2022-11-20T03:15:21;11.02;;;5.22;;
11287;SDS011;5700;50.996;7.044;2022-11-20T03:18:22;13.65;;;6.03;;
11287;SDS011;5700;50.996;7.044;2022-11-20T03:21:23;13.75;;;5.85;;
11287;SDS011;5700;50.996;7.044;2022-11-20T03:24:25;12.23;;;5.95;;
11287;SDS011;5700;50.996;7.044;2022-11-20T03:27:27;12.50;;;5.32;;
11287;SDS011;5700;50.996;7.044;2022-11-20T03:30:33;12.73;;;6.45;;
11287;SDS011;5700;50.996;7.044;2022-11-20T03:33:34;13.45;;;6.55;;
11287;SDS011;5700;50.996;7.044;2022-11-20T03:36:37;14.25;;;6.88;;
11287;SDS011;5700;50.996;7.044;2022-11-20T03:39:38;13.30;;;6.45;;
11287;SDS011;5700;50.996;7.044;2022-11-20T03:42:41;14.07;;;6.38;;
11287;SDS011;5700;50.996;7.044;2022-11-20T03:45:49;11.18;;;5.88;;
11287;SDS011;5700;50.996;7.044;2022-11-20T03:48:50;12.05;;;5.70;;
11287;SDS011;5700;50.996;7.044;2022-11-20T03:51:52;13.25;;;6.38;;
11287;SDS011;5700;50.996;7.044;2022-11-20T03:54:53;15.32;;;6.68;;
11287;SDS011;5700;50.996;7.044;2022-11-20T03:57:56;18.63;;;5.93;;
11287;SDS011;5700;50.996;7.044;2022-11-20T04:00:57;13.40;;;6.18;;
11287;SDS011;5700;50.996;7.044;2022-11-20T04:03:59;11.88;;;6.05;;
11287;SDS011;5700;50.996;7.044;2022-11-20T04:07:00;11.57;;;5.88;;
11287;SDS011;5700;50.996;7.044;2022-11-20T04:10:02;10.35;;;5.75;;
11287;SDS011;5700;50.996;7.044;2022-11-20T04:13:05;13.50;;;6.10;;
11287;SDS011;5700;50.996;7.044;2022-11-20T04:16:06;14.68;;;7.07;;
11287;SDS011;5700;50.996;7.044;2022-11-20T04:19:09;11.65;;;6.18;;
11287;SDS011;5700;50.996;7.044;2022-11-20T04:22:12;16.05;;;6.20;;
11287;SDS011;5700;50.996;7.044;2022-11-20T04:25:13;15.10;;;6.50;;
11287;SDS011;5700;50.996;7.044;2022-11-20T04:28:16;12.65;;;5.97;;
11287;SDS011;5700;50.996;7.044;2022-11-20T04:31:18;12.32;;;6.75;;
11287;SDS011;5700;50.996;7.044;2022-11-20T04:34:21;12.13;;;6.18;;
11287;SDS011;5700;50.996;7.044;2022-11-20T04:37:23;15.10;;;6.35;;
11287;SDS011;5700;50.996;7.044;2022-11-20T04:40:24;15.38;;;6.13;;
11287;SDS011;5700;50.996;7.044;2022-11-20T04:43:27;13.77;;;5.68;;
11287;SDS011;5700;50.996;7.044;2022-11-20T04:46:29;12.68;;;4.68;;
11287;SDS011;5700;50.996;7.044;2022-11-20T04:49:31;11.65;;;5.53;;
11287;SDS011;5700;50.996;7.044;2022-11-20T04:52:33;12.38;;;5.07;;
11287;SDS011;5700;50.996;7.044;2022-11-20T04:55:35;9.40;;;4.15;;
11287;SDS011;5700;50.996;7.044;2022-11-20T04:58:37;11.18;;;5.07;;
11287;SDS011;5700;50.996;7.044;2022-11-20T05:01:39;9.55;;;4.53;;
11287;SDS011;5700;50.996;7.044;2022-11-20T05:04:41;12.02;;;4.90;;
11287;SDS011;5700;50.996;7.044;2022-11-20T05:07:42;11.23;;;4.38;;
11287;SDS011;5700;50.996;7.044;2022-11-20T05:10:43;12.13;;;4.30;;
11287;SDS011;5700;50.996;7.044;2022-11-20T05:13:46;8.55;;;4.60;;
11287;SDS011;5700;50.996;7.044;2022-11-20T05:16:48;9.18;;;4.38;;
11287;SDS011;5700;50.996;7.044;2022-11-20T05:19:49;10.80;;;4.53;;
11287;SDS011;5700;50.996;7.044;2022-11-20T05:22:50;12.95;;;5.78;;
11287;SDS011;5700;50.996;7.044;2022-11-20T05:25:52;8.18;;;4.35;;
11287;SDS011;5700;50.996;7.044;2022-11-20T05:28:55;11.45;;;5.13;;
11287;SDS011;5700;50.996;7.044;2022-11-20T05:31:57;13.13;;;4.88;;
11287;SDS011;5700;50.996;7.044;2022-11-20T05:34:58;10.60;;;4.35;;
11287;SDS011;5700;50.996;7.044;2022-11-20T05:37:59;11.43;;;5.00;;
11287;SDS011;5700;50.996;7.044;2022-11-20T05:41:02;9.15;;;4.50;;
11287;SDS011;5700;50.996;7.044;2022-11-20T05:44:06;11.60;;;4.75;;
11287;SDS011;5700;50.996;7.044;2022-11-20T05:47:07;10.68;;;5.00;;
11287;SDS011;5700;50.996;7.044;2022-11-20T05:50:09;10.75;;;5.30;;
11287;SDS011;5700;50.996;7.044;2022-11-20T05:53:10;12.38;;;4.97;;
11287;SDS011;5700;50.996;7.044;2022-11-20T05:56:12;10.57;;;4.75;;
11287;SDS011;5700;50.996;7.044;2022-11-20T05:59:15;13.85;;;5.30;;
11287;SDS011;5700;50.996;7.044;2022-11-20T06:02:17;9.93;;;4.75;;
11287;SDS011;5700;50.996;7.044;2022-11-20T06:05:18;10.93;;;4.63;;
11287;SDS011;5700;50.996;7.044;2022-11-20T06:08:20;9.85;;;4.90;;
11287;SDS011;5700;50.996;7.044;2022-11-20T06:11:21;14.15;;;4.80;;
11287;SDS011;5700;50.996;7.044;2022-11-20T06:14:24;11.27;;;4.70;;
11287;SDS011;5700;50.996;7.044;2022-11-20T06:17:25;10.45;;;4.65;;
11287;SDS011;5700;50.996;7.044;2022-11-20T06:20:26;10.18;;;4.07;;
11287;SDS011;5700;50.996;7.044;2022-11-20T06:23:28;11.55;;;4.80;;
11287;SDS011;5700;50.996;7.044;2022-11-20T06:26:30;10.98;;;4.53;;
11287;SDS011;5700;50.996;7.044;2022-11-20T06:29:33;13.32;;;4.75;;
11287;SDS011;5700;50.996;7.044;2022-11-20T06:32:34;13.05;;;5.47;;
11287;SDS011;5700;50.996;7.044;2022-11-20T06:35:36;10.35;;;4.90;;
11287;SDS011;5700;50.996;7.044;2022-11-20T06:38:37;10.70;;;4.25;;
11287;SDS011;5700;50.996;7.044;2022-11-20T06:41:39;11.55;;;5.22;;
11287;SDS011;5700;50.996;7.044;2022-11-20T06:44:42;10.82;;;4.65;;
11287;SDS011;5700;50.996;7.044;2022-11-20T06:47:43;10.77;;;4.35;;
11287;SDS011;5700;50.996;7.044;2022-11-20T06:50:45;11.60;;;4.90;;
11287;SDS011;5700;50.996;7.044;2022-11-20T06:53:46;9.65;;;4.55;;
11287;SDS011;5700;50.996;7.044;2022-11-20T06:56:48;14.73;;;5.38;;
11287;SDS011;5700;50.996;7.044;2022-11-20T06:59:51;9.27;;;4.57;;
11287;SDS011;5700;50.996;7.044;2022-11-20T07:02:52;11.43;;;4.88;;
11287;SDS011;5700;50.996;7.044;2022-11-20T07:05:54;8.95;;;3.72;;
11287;SDS011;5700;50.996;7.044;2022-11-20T07:08:56;10.88;;;4.78;;
11287;SDS011;5700;50.996;7.044;2022-11-20T07:11:57;10.55;;;4.60;;
11287;SDS011;5700;50.996;7.044;2022-11-20T07:15:00;9.95;;;4.60;;
11287;SDS011;5700;50.996;7.044;2022-11-20T07:18:01;9.70;;;3.67;;
11287;SDS011;5700;50.996;7.044;2022-11-20T07:21:04;9.18;;;4.47;;
11287;SDS011;5700;50.996;7.044;2022-11-20T07:24:07;10.52;;;4.32;;
11287;SDS011;5700;50.996;7.044;2022-11-20T07:27:08;11.55;;;4.95;;
11287;SDS011;5700;50.996;7.044;2022-11-20T07:30:11;10.02;;;4.55;;
11287;SDS011;5700;50.996;7.044;2022-11-20T07:33:14;9.43;;;4.75;;
11287;SDS011;5700;50.996;7.044;2022-11-20T07:36:15;12.98;;;5.07;;
11287;SDS011;5700;50.996;7.044;2022-11-20T07:39:16;13.77;;;6.90;;
11287;SDS011;5700;50.996;7.044;2022-11-20T07:42:18;11.23;;;4.82;;
11287;SDS011;5700;50.996;7.044;2022-11-20T07:45:21;12.27;;;5.72;;
11287;SDS011;5700;50.996;7.044;2022-11-20T07:48:23;13.00;;;7.15;;
11287;SDS011;5700;50.996;7.044;2022-11-20T07:51:25;13.07;;;6.18;;
11287;SDS011;5700;50.996;7.044;2022-11-20T07:54:27;11.30;;;5.97;;
11287;SDS011;5700;50.996;7.044;2022-11-20T07:57:28;13.73;;;6.10;;
11287;SDS011;5700;50.996;7.044;2022-11-20T08:00:31;13.63;;;6.47;;
11287;SDS011;5700;50.996;7.044;2022-11-20T08:03:33;11.35;;;5.13;;
11287;SDS011;5700;50.996;7.044;2022-11-20T08:06:34;13.20;;;6.00;;
11287;SDS011;5700;50.996;7.044;2022-11-20T08:09:36;11.43;;;5.50;;
11287;SDS011;5700;50.996;7.044;2022-11-20T08:12:43;14.07;;;6.25;;
11287;SDS011;5700;50.996;7.044;2022-11-20T08:16:00;12.88;;;5.93;;
11287;SDS011;5700;50.996;7.044;2022-11-20T08:19:01;12.63;;;5.47;;
11287;SDS011;5700;50.996;7.044;2022-11-20T08:22:03;10.43;;;4.65;;
11287;SDS011;5700;50.996;7.044;2022-11-20T08:25:04;11.57;;;5.07;;
11287;SDS011;5700;50.996;7.044;2022-11-20T08:28:06;11.80;;;5.57;;
11287;SDS011;5700;50.996;7.044;2022-11-20T08:31:10;13.60;;;5.60;;
11287;SDS011;5700;50.996;7.044;2022-11-20T08:34:11;13.93;;;5.35;;
11287;SDS011;5700;50.996;7.044;2022-11-20T08:37:13;14.43;;;6.60;;
11287;SDS011;5700;50.996;7.044;2022-11-20T08:40:14;14.00;;;6.28;;
11287;SDS011;5700;50.996;7.044;2022-11-20T08:43:16;13.65;;;6.13;;
11287;SDS011;5700;50.996;7.044;2022-11-20T08:46:19;13.65;;;6.90;;
11287;SDS011;5700;50.996;7.044;2022-11-20T08:49:20;15.68;;;7.57;;
11287;SDS011;5700;50.996;7.044;2022-11-20T08:52:22;15.45;;;7.45;;
11287;SDS011;5700;50.996;7.044;2022-11-20T08:55:23;18.60;;;6.93;;
11287;SDS011;5700;50.996;7.044;2022-11-20T08:58:25;17.70;;;7.65;;
11287;SDS011;5700;50.996;7.044;2022-11-20T09:01:28;15.15;;;6.57;;
11287;SDS011;5700;50.996;7.044;2022-11-20T09:04:30;15.63;;;7.70;;
11287;SDS011;5700;50.996;7.044;2022-11-20T09:07:31;17.08;;;7.32;;
11287;SDS011;5700;50.996;7.044;2022-11-20T09:10:32;16.75;;;6.55;;
11287;SDS011;5700;50.996;7.044;2022-11-20T09:13:34;16.33;;;6.85;;
11287;SDS011;5700;50.996;7.044;2022-11-20T09:16:37;15.85;;;6.18;;
11287;SDS011;5700;50.996;7.044;2022-11-20T09:19:39;13.60;;;5.95;;
11287;SDS011;5700;50.996;7.044;2022-11-20T09:22:41;11.52;;;5.72;;
11287;SDS011;5700;50.996;7.044;2022-11-20T09:25:42;17.55;;;7.72;;
11287;SDS011;5700;50.996;7.044;2022-11-20T09:28:44;14.43;;;7.10;;
11287;SDS011;5700;50.996;7.044;2022-11-20T09:31:46;13.23;;;6.25;;
11287;SDS011;5700;50.996;7.044;2022-11-20T09:34:48;14.30;;;6.97;;
11287;SDS011;5700;50.996;7.044;2022-11-20T09:37:49;13.57;;;5.78;;
11287;SDS011;5700;50.996;7.044;2022-11-20T09:40:52;15.23;;;6.07;;
11287;SDS011;5700;50.996;7.044;2022-11-20T09:44:00;13.25;;;5.93;;
11287;SDS011;5700;50.996;7.044;2022-11-20T09:47:08;12.88;;;5.43;;
11287;SDS011;5700;50.996;7.044;2022-11-20T09:50:17;16.35;;;6.22;;
11287;SDS011;5700;50.996;7.044;2022-11-20T09:53:26;16.38;;;7.03;;
11287;SDS011;5700;50.996;7.044;2022-11-20T09:56:33;12.32;;;6.45;;
11287;SDS011;5700;50.996;7.044;2022-11-20T09:59:36;12.75;;;5.45;;
11287;SDS011;5700;50.996;7.044;2022-11-20T10:02:42;12.48;;;6.13;;
11287;SDS011;5700;50.996;7.044;2022-11-20T10:05:48;16.35;;;7.32;;
11287;SDS011;5700;50.996;7.044;2022-11-20T10:08:55;20.48;;;9.45;;
11287;SDS011;5700;50.996;7.044;2022-11-20T10:12:05;15.05;;;7.13;;
11287;SDS011;5700;50.996;7.044;2022-11-20T10:15:17;13.88;;;6.55;;
11287;SDS011;5700;50.996;7.044;2022-11-20T10:18:30;13.10;;;5.35;;
11287;SDS011;5700;50.996;7.044;2022-11-20T10:21:52;13.98;;;6.10;;
11287;SDS011;5700;50.996;7.044;2022-11-20T10:24:57;13.05;;;5.15;;
11287;SDS011;5700;50.996;7.044;2022-11-20T10:28:08;13.25;;;7.03;;
11287;SDS011;5700;50.996;7.044;2022-11-20T10:31:23;10.55;;;5.03;;
11287;SDS011;5700;50.996;7.044;2022-11-20T10:34:30;13.50;;;5.75;;
11287;SDS011;5700;50.996;7.044;2022-11-20T10:37:34;14.82;;;5.97;;
11287;SDS011;5700;50.996;7.044;2022-11-20T10:40:39;10.35;;;5.28;;
11287;SDS011;5700;50.996;7.044;2022-11-20T10:43:42;12.55;;;5.72;;
11287;SDS011;5700;50.996;7.044;2022-11-20T10:46:44;11.98;;;6.00;;
11287;SDS011;5700;50.996;7.044;2022-11-20T10:49:48;13.32;;;6.30;;
11287;SDS011;5700;50.996;7.044;2022-11-20T10:52:56;14.35;;;6.30;;
11287;SDS011;5700;50.996;7.044;2022-11-20T10:56:05;9.85;;;5.60;;
11287;SDS011;5700;50.996;7.044;2022-11-20T10:59:15;15.45;;;7.38;;
11287;SDS011;5700;50.996;7.044;2022-11-20T11:02:31;14.32;;;6.18;;
11287;SDS011;5700;50.996;7.044;2022-11-20T11:05:37;13.85;;;6.93;;
11287;SDS011;5700;50.996;7.044;2022-11-20T11:08:41;14.38;;;6.50;;
11287;SDS011;5700;50.996;7.044;2022-11-20T11:11:44;14.40;;;6.07;;
11287;SDS011;5700;50.996;7.044;2022-11-20T11:14:46;15.93;;;6.50;;
11287;SDS011;5700;50.996;7.044;2022-11-20T11:17:48;16.52;;;7.68;;
11287;SDS011;5700;50.996;7.044;2022-11-20T11:20:51;15.60;;;6.28;;
11287;SDS011;5700;50.996;7.044;2022-11-20T11:23:58;13.40;;;5.82;;
11287;SDS011;5700;50.996;7.044;2022-11-20T11:27:01;17.13;;;6.25;;
11287;SDS011;5700;50.996;7.044;2022-11-20T11:30:14;13.48;;;5.43;;
11287;SDS011;5700;50.996;7.044;2022-11-20T11:33:18;15.15;;;7.25;;
11287;SDS011;5700;50.996;7.044;2022-11-20T11:36:22;13.88;;;7.38;;
11287;SDS011;5700;50.996;7.044;2022-11-20T11:39:26;15.82;;;6.60;;
11287;SDS011;5700;50.996;7.044;2022-11-20T11:42:28;15.93;;;6.40;;
11287;SDS011;5700;50.996;7.044;2022-11-20T11:45:30;18.70;;;7.43;;
11287;SDS011;5700;50.996;7.044;2022-11-20T11:48:31;15.60;;;7.32;;
11287;SDS011;5700;50.996;7.044;2022-11-20T11:51:36;12.32;;;6.40;;
11287;SDS011;5700;50.996;7.044;2022-11-20T11:54:43;14.73;;;6.55;;
11287;SDS011;5700;50.996;7.044;2022-11-20T11:57:49;14.80;;;6.97;;
11287;SDS011;5700;50.996;7.044;2022-11-20T12:00:54;15.55;;;6.63;;
11287;SDS011;5700;50.996;7.044;2022-11-20T12:04:00;13.48;;;5.78;;
11287;SDS011;5700;50.996;7.044;2022-11-20T12:07:08;13.93;;;6.00;;
11287;SDS011;5700;50.996;7.044;2022-11-20T12:10:14;13.13;;;6.00;;
11287;SDS011;5700;50.996;7.044;2022-11-20T12:13:20;13.70;;;6.85;;
11287;SDS011;5700;50.996;7.044;2022-11-20T12:16:27;13.38;;;6.13;;
11287;SDS011;5700;50.996;7.044;2022-11-20T12:19:29;15.48;;;6.10;;
11287;SDS011;5700;50.996;7.044;2022-11-20T12:22:35;13.98;;;6.50;;
11287;SDS011;5700;50.996;7.044;2022-11-20T12:25:41;13.07;;;6.10;;
11287;SDS011;5700;50.996;7.044;2022-11-20T12:28:45;14.35;;;6.28;;
11287;SDS011;5700;50.996;7.044;2022-11-20T12:31:57;14.18;;;6.47;;
11287;SDS011;5700;50.996;7.044;2022-11-20T12:35:05;15.27;;;6.82;;
11287;SDS011;5700;50.996;7.044;2022-11-20T12:38:19;11.75;;;6.00;;
11287;SDS011;5700;50.996;7.044;2022-11-20T12:41:42;13.50;;;5.80;;
11287;SDS011;5700;50.996;7.044;2022-11-20T12:45:06;14.70;;;5.55;;
11287;SDS011;5700;50.996;7.044;2022-11-20T12:51:39;13.73;;;5.95;;
11287;SDS011;5700;50.996;7.044;2022-11-20T12:54:53;15.75;;;5.90;;
11287;SDS011;5700;50.996;7.044;2022-11-20T12:58:05;16.08;;;6.95;;
11287;SDS011;5700;50.996;7.044;2022-11-20T13:01:16;18.77;;;6.53;;
11287;SDS011;5700;50.996;7.044;2022-11-20T13:04:44;13.73;;;6.00;;
11287;SDS011;5700;50.996;7.044;2022-11-20T13:07:54;14.65;;;5.88;;
11287;SDS011;5700;50.996;7.044;2022-11-20T13:10:59;12.82;;;5.68;;
11287;SDS011;5700;50.996;7.044;2022-11-20T13:14:07;15.63;;;6.72;;
11287;SDS011;5700;50.996;7.044;2022-11-20T13:17:14;12.77;;;5.88;;
11287;SDS011;5700;50.996;7.044;2022-11-20T13:20:18;13.50;;;6.70;;
11287;SDS011;5700;50.996;7.044;2022-11-20T13:23:23;15.35;;;6.18;;
11287;SDS011;5700;50.996;7.044;2022-11-20T13:26:26;12.05;;;5.80;;
11287;SDS011;5700;50.996;7.044;2022-11-20T13:29:28;16.15;;;7.47;;
11287;SDS011;5700;50.996;7.044;2022-11-20T13:32:30;11.23;;;5.18;;
11287;SDS011;5700;50.996;7.044;2022-11-20T13:35:33;16.52;;;6.82;;
11287;SDS011;5700;50.996;7.044;2022-11-20T13:38:43;14.48;;;6.00;;
11287;SDS011;5700;50.996;7.044;2022-11-20T13:41:53;13.75;;;6.40;;
11287;SDS011;5700;50.996;7.044;2022-11-20T13:44:55;11.35;;;5.15;;
11287;SDS011;5700;50.996;7.044;2022-11-20T13:47:57;14.00;;;6.20;;
11287;SDS011;5700;50.996;7.044;2022-11-20T13:51:02;12.70;;;6.35;;
11287;SDS011;5700;50.996;7.044;2022-11-20T13:54:15;13.45;;;5.97;;
11287;SDS011;5700;50.996;7.044;2022-11-20T13:57:35;13.95;;;5.40;;
11287;SDS011;5700;50.996;7.044;2022-11-20T14:00:43;13.73;;;6.10;;
11287;SDS011;5700;50.996;7.044;2022-11-20T14:03:46;15.77;;;7.18;;
11287;SDS011;5700;50.996;7.044;2022-11-20T14:06:47;13.98;;;5.95;;
11287;SDS011;5700;50.996;7.044;2022-11-20T14:09:50;12.73;;;5.68;;
11287;SDS011;5700;50.996;7.044;2022-11-20T14:12:54;12.85;;;6.28;;
11287;SDS011;5700;50.996;7.044;2022-11-20T14:15:56;12.70;;;5.40;;
11287;SDS011;5700;50.996;7.044;2022-11-20T14:22:28;11.48;;;4.93;;
11287;SDS011;5700;50.996;7.044;2022-11-20T14:25:29;13.68;;;5.50;;
11287;SDS011;5700;50.996;7.044;2022-11-20T14:28:32;10.27;;;5.53;;
11287;SDS011;5700;50.996;7.044;2022-11-20T14:31:33;11.02;;;4.82;;
11287;SDS011;5700;50.996;7.044;2022-11-20T14:34:37;15.85;;;6.18;;
11287;SDS011;5700;50.996;7.044;2022-11-20T14:37:40;12.23;;;5.57;;
11287;SDS011;5700;50.996;7.044;2022-11-20T14:40:42;12.20;;;5.50;;
11287;SDS011;5700;50.996;7.044;2022-11-20T14:43:46;10.18;;;4.80;;
11287;SDS011;5700;50.996;7.044;2022-11-20T14:46:48;14.73;;;5.88;;
11287;SDS011;5700;50.996;7.044;2022-11-20T14:49:51;10.00;;;4.95;;
11287;SDS011;5700;50.996;7.044;2022-11-20T14:52:54;14.02;;;5.85;;
11287;SDS011;5700;50.996;7.044;2022-11-20T14:55:57;10.98;;;4.55;;
11287;SDS011;5700;50.996;7.044;2022-11-20T14:59:01;11.57;;;5.20;;
11287;SDS011;5700;50.996;7.044;2022-11-20T15:02:03;15.65;;;5.55;;
11287;SDS011;5700;50.996;7.044;2022-11-20T15:05:06;13.02;;;5.75;;
11287;SDS011;5700;50.996;7.044;2022-11-20T15:08:08;11.25;;;5.43;;
11287;SDS011;5700;50.996;7.044;2022-11-20T15:11:16;10.50;;;5.05;;
11287;SDS011;5700;50.996;7.044;2022-11-20T15:14:20;13.65;;;5.20;;
11287;SDS011;5700;50.996;7.044;2022-11-20T15:17:21;13.63;;;5.72;;
11287;SDS011;5700;50.996;7.044;2022-11-20T15:20:24;13.48;;;6.18;;
11287;SDS011;5700;50.996;7.044;2022-11-20T15:23:27;13.73;;;6.10;;
11287;SDS011;5700;50.996;7.044;2022-11-20T15:26:29;10.98;;;5.13;;
11287;SDS011;5700;50.996;7.044;2022-11-20T15:29:33;9.57;;;4.97;;
11287;SDS011;5700;50.996;7.044;2022-11-20T15:32:34;11.70;;;5.88;;
11287;SDS011;5700;50.996;7.044;2022-11-20T15:35:35;14.43;;;5.75;;
11287;SDS011;5700;50.996;7.044;2022-11-20T15:38:37;13.55;;;5.88;;
11287;SDS011;5700;50.996;7.044;2022-11-20T15:41:38;20.60;;;9.18;;
11287;SDS011;5700;50.996;7.044;2022-11-20T15:44:41;17.70;;;8.43;;
11287;SDS011;5700;50.996;7.044;2022-11-20T15:47:43;14.43;;;7.65;;
11287;SDS011;5700;50.996;7.044;2022-11-20T15:50:47;16.83;;;8.13;;
11287;SDS011;5700;50.996;7.044;2022-11-20T15:53:52;14.63;;;7.15;;
11287;SDS011;5700;50.996;7.044;2022-11-20T15:56:53;14.77;;;6.97;;
11287;SDS011;5700;50.996;7.044;2022-11-20T15:59:56;17.02;;;7.63;;
11287;SDS011;5700;50.996;7.044;2022-11-20T16:02:57;19.13;;;7.63;;
11287;SDS011;5700;50.996;7.044;2022-11-20T16:05:59;15.20;;;7.45;;
11287;SDS011;5700;50.996;7.044;2022-11-20T16:09:00;15.88;;;6.80;;
11287;SDS011;5700;50.996;7.044;2022-11-20T16:12:01;14.82;;;6.70;;
11287;SDS011;5700;50.996;7.044;2022-11-20T16:15:04;18.40;;;7.78;;
11287;SDS011;5700;50.996;7.044;2022-11-20T16:18:20;16.73;;;8.10;;
11287;SDS011;5700;50.996;7.044;2022-11-20T16:21:22;14.38;;;7.28;;
11287;SDS011;5700;50.996;7.044;2022-11-20T16:24:27;15.23;;;7.82;;
11287;SDS011;5700;50.996;7.044;2022-11-20T16:27:29;18.13;;;7.95;;
11287;SDS011;5700;50.996;7.044;2022-11-20T16:30:32;16.38;;;7.97;;
11287;SDS011;5700;50.996;7.044;2022-11-20T16:33:34;14.48;;;6.03;;
11287;SDS011;5700;50.996;7.044;2022-11-20T16:36:35;14.93;;;6.55;;
11287;SDS011;5700;50.996;7.044;2022-11-20T16:39:40;15.48;;;7.18;;
11287;SDS011;5700;50.996;7.044;2022-11-20T16:42:41;13.90;;;6.78;;
11287;SDS011;5700;50.996;7.044;2022-11-20T16:45:44;13.85;;;6.55;;
11287;SDS011;5700;50.996;7.044;2022-11-20T16:48:46;17.20;;;7.53;;
11287;SDS011;5700;50.996;7.044;2022-11-20T16:51:53;15.48;;;7.43;;
11287;SDS011;5700;50.996;7.044;2022-11-20T16:54:54;13.85;;;6.95;;
11287;SDS011;5700;50.996;7.044;2022-11-20T16:57:55;13.57;;;6.15;;
11287;SDS011;5700;50.996;7.044;2022-11-20T17:00:58;13.10;;;6.63;;
11287;SDS011;5700;50.996;7.044;2022-11-20T17:04:06;16.15;;;6.47;;
11287;SDS011;5700;50.996;7.044;2022-11-20T17:07:07;10.85;;;5.45;;
11287;SDS011;5700;50.996;7.044;2022-11-20T17:10:08;11.40;;;5.65;;
11287;SDS011;5700;50.996;7.044;2022-11-20T17:13:10;12.00;;;4.93;;
11287;SDS011;5700;50.996;7.044;2022-11-20T17:16:13;8.95;;;4.43;;
11287;SDS011;5700;50.996;7.044;2022-11-20T17:19:15;15.23;;;5.35;;
11287;SDS011;5700;50.996;7.044;2022-11-20T17:22:16;9.00;;;3.90;;
11287;SDS011;5700;50.996;7.044;2022-11-20T17:25:18;9.63;;;4.05;;
11287;SDS011;5700;50.996;7.044;2022-11-20T17:28:19;9.10;;;4.30;;
11287;SDS011;5700;50.996;7.044;2022-11-20T17:31:22;6.55;;;3.35;;
11287;SDS011;5700;50.996;7.044;2022-11-20T17:34:23;9.13;;;4.22;;
11287;SDS011;5700;50.996;7.044;2022-11-20T17:37:25;8.05;;;4.05;;
11287;SDS011;5700;50.996;7.044;2022-11-20T17:40:26;7.88;;;3.58;;
11287;SDS011;5700;50.996;7.044;2022-11-20T17:43:27;5.53;;;3.03;;
11287;SDS011;5700;50.996;7.044;2022-11-20T17:46:31;5.70;;;3.10;;
11287;SDS011;5700;50.996;7.044;2022-11-20T17:49:33;6.50;;;2.92;;
11287;SDS011;5700;50.996;7.044;2022-11-20T17:52:34;7.38;;;3.45;;
11287;SDS011;5700;50.996;7.044;2022-11-20T17:55:36;4.85;;;2.72;;
11287;SDS011;5700;50.996;7.044;2022-11-20T17:58:51;6.75;;;3.17;;
11287;SDS011;5700;50.996;7.044;2022-11-20T18:01:54;5.32;;;2.92;;
11287;SDS011;5700;50.996;7.044;2022-11-20T18:04:55;8.35;;;3.10;;
11287;SDS011;5700;50.996;7.044;2022-11-20T18:07:56;5.10;;;2.55;;
11287;SDS011;5700;50.996;7.044;2022-11-20T18:10:58;8.43;;;2.70;;
11287;SDS011;5700;50.996;7.044;2022-11-20T18:13:59;3.78;;;2.20;;
11287;SDS011;5700;50.996;7.044;2022-11-20T18:17:17;3.80;;;2.10;;
11287;SDS011;5700;50.996;7.044;2022-11-20T18:20:19;5.40;;;2.20;;
11287;SDS011;5700;50.996;7.044;2022-11-20T18:23:20;5.63;;;3.03;;
11287;SDS011;5700;50.996;7.044;2022-11-20T18:26:22;4.93;;;2.58;;
11287;SDS011;5700;50.996;7.044;2022-11-20T18:29:24;6.82;;;2.53;;
11287;SDS011;5700;50.996;7.044;2022-11-20T18:32:27;5.93;;;2.80;;
11287;SDS011;5700;50.996;7.044;2022-11-20T18:35:29;3.58;;;2.35;;